Time;durP1;ratioP1;P1;durP2;ratioP2;P2;SDS_P1;SDS_P2;PMS_P1;PMS_P2;Temp;Humidity;BMP_temperature;BMP_pressure;BME280_temperature;BME280_humidity;BME280_pressure;Samples;Min_cycle;Max_cycle;Signal;HPM_P1;HPM_P2
2022/09/04 00:02:11;;;;;;;0.20;0.20;;;;;;;;;;5035696;28;20452;-88
2022/09/04 00:04:46;;;;;;;0.22;0.22;;;;;;;;;;5042185;28;20044;-79
2022/09/04 00:07:32;;;;;;;0.20;0.20;;;;;;;;;;5055277;28;20457;-77
2022/09/04 00:10:10;;;;;;;0.20;0.20;;;;;;;;;;5054979;28;20041;-79
2022/09/04 00:12:54;;;;;;;0.20;0.20;;;;;;;;;;5054325;28;20431;-78
2022/09/04 00:15:21;;;;;;;0.20;0.20;;;;;;;;;;5054202;28;20025;-78
2022/09/04 00:17:50;;;;;;;0.20;0.20;;;;;;;;;;5036963;28;20369;-78
2022/09/04 00:20:18;;;;;;;0.20;0.20;;;;;;;;;;5054544;28;20388;-78
2022/09/04 00:22:53;;;;;;;0.20;0.20;;;;;;;;;;5054287;28;20021;-79
2022/09/04 00:25:34;;;;;;;0.20;0.20;;;;;;;;;;5054459;28;20037;-80
2022/09/04 00:28:12;;;;;;;0.20;0.20;;;;;;;;;;5036711;28;20032;-78
2022/09/04 00:30:40;;;;;;;0.10;0.10;;;;;;;;;;5035048;28;20581;-83
2022/09/04 00:33:29;;;;;;;0.20;0.20;;;;;;;;;;5054019;28;20051;-83
2022/09/04 00:35:57;;;;;;;0.22;0.22;;;;;;;;;;5053912;28;20063;-82
2022/09/04 00:38:53;;;;;;;0.20;0.20;;;;;;;;;;5054181;28;20036;-77
2022/09/04 00:41:25;;;;;;;0.22;0.22;;;;;;;;;;5036785;28;20049;-78
2022/09/04 00:44:09;;;;;;;0.25;0.25;;;;;;;;;;5061881;28;20029;-78
2022/09/04 00:46:38;;;;;;;0.30;0.30;;;;;;;;;;5064498;28;20044;-80
2022/09/04 00:49:15;;;;;;;0.20;0.20;;;;;;;;;;5059257;28;20009;-81
2022/09/04 00:51:40;;;;;;;0.20;0.20;;;;;;;;;;5036409;28;20037;-80
2022/09/04 00:54:06;;;;;;;0.20;0.20;;;;;;;;;;5036976;28;20045;-80
2022/09/04 00:56:37;;;;;;;0.20;0.20;;;;;;;;;;5053666;28;20021;-80
2022/09/04 00:59:21;;;;;;;0.22;0.22;;;;;;;;;;5033662;28;20034;-82
2022/09/04 01:01:50;;;;;;;0.20;0.20;;;;;;;;;;5034809;28;20033;-84
2022/09/04 01:04:25;;;;;;;0.20;0.20;;;;;;;;;;5015960;28;20029;-84
2022/09/04 01:07:21;;;;;;;0.20;0.20;;;;;;;;;;5033946;28;20060;-84
2022/09/04 01:10:05;;;;;;;0.22;0.22;;;;;;;;;;5033816;28;20037;-83
2022/09/04 01:12:36;;;;;;;0.20;0.20;;;;;;;;;;5033675;28;20125;-83
2022/09/04 01:15:28;;;;;;;0.20;0.20;;;;;;;;;;5033902;28;20076;-83
2022/09/04 01:17:59;;;;;;;0.20;0.20;;;;;;;;;;5017989;28;20037;-83
2022/09/04 01:20:42;;;;;;;0.20;0.20;;;;;;;;;;5034851;28;20025;-83
2022/09/04 01:23:26;;;;;;;0.20;0.20;;;;;;;;;;5016571;28;20036;-85
2022/09/04 01:25:52;;;;;;;0.20;0.20;;;;;;;;;;5033734;28;20083;-86
2022/09/04 01:28:31;;;;;;;0.20;0.20;;;;;;;;;;5048983;28;20033;-86
2022/09/04 01:31:01;;;;;;;0.20;0.20;;;;;;;;;;5035692;28;20045;-86
2022/09/04 01:33:30;;;;;;;0.20;0.20;;;;;;;;;;5053515;28;20473;-88
2022/09/04 01:36:09;;;;;;;0.32;0.32;;;;;;;;;;5053508;28;20431;-85
2022/09/04 01:38:35;;;;;;;;;;;;;;;;;;5035616;28;20037;-85
2022/09/04 01:41:19;;;;;;;0.20;0.20;;;;;;;;;;5030547;28;20498;-86
2022/09/04 01:43:45;;;;;;;0.17;0.17;;;;;;;;;;5032308;28;20446;-86
2022/09/04 01:46:11;;;;;;;0.20;0.20;;;;;;;;;;5033369;28;20061;-88
2022/09/04 01:48:40;;;;;;;0.20;0.20;;;;;;;;;;5032102;28;20021;-80
2022/09/04 01:51:13;;;;;;;0.20;0.20;;;;;;;;;;5033231;28;20477;-79
2022/09/04 01:53:41;;;;;;;0.20;0.20;;;;;;;;;;5033461;28;20112;-79
2022/09/04 01:56:33;;;;;;;0.20;0.20;;;;;;;;;;5033372;28;20033;-76
2022/09/04 01:59:14;;;;;;;0.20;0.20;;;;;;;;;;5029885;28;20038;-76
2022/09/04 02:01:53;;;;;;;0.20;0.20;;;;;;;;;;5033082;28;20037;-76
2022/09/04 02:04:22;;;;;;;0.20;0.20;;;;;;;;;;5033657;28;20036;-76
2022/09/04 02:06:54;;;;;;;0.20;0.20;;;;;;;;;;5033247;28;20037;-77
2022/09/04 02:09:20;;;;;;;0.20;0.20;;;;;;;;;;5033039;28;20033;-76
2022/09/04 02:11:55;;;;;;;0.20;0.20;;;;;;;;;;5032432;28;20469;-76
2022/09/04 02:14:38;;;;;;;0.20;0.20;;;;;;;;;;5033279;28;20087;-75
2022/09/04 02:17:23;;;;;;;0.20;0.20;;;;;;;;;;5037349;28;20030;-76
2022/09/04 02:20:07;;;;;;;0.10;0.10;;;;;;;;;;5036034;28;20029;-80
2022/09/04 02:22:32;;;;;;;0.20;0.20;;;;;;;;;;5035357;28;20037;-80
2022/09/04 02:25:16;;;;;;;0.20;0.20;;;;;;;;;;5037043;28;20025;-80
2022/09/04 02:27:42;;;;;;;0.20;0.20;;;;;;;;;;5036501;28;20115;-81
2022/09/04 02:30:09;;;;;;;0.20;0.20;;;;;;;;;;5035691;28;20069;-82
2022/09/04 02:32:36;;;;;;;0.30;0.30;;;;;;;;;;5036912;28;20029;-82
2022/09/04 02:35:02;;;;;;;0.20;0.20;;;;;;;;;;5035668;28;20025;-83
2022/09/04 02:37:33;;;;;;;0.20;0.20;;;;;;;;;;5036920;28;20375;-83
2022/09/04 02:40:10;;;;;;;0.30;0.30;;;;;;;;;;5020510;28;20025;-83
2022/09/04 02:42:39;;;;;;;0.20;0.20;;;;;;;;;;5038258;28;20112;-82
2022/09/04 02:45:18;;;;;;;0.20;0.20;;;;;;;;;;5038869;28;20029;-82
2022/09/04 02:47:48;;;;;;;0.20;0.20;;;;;;;;;;5055639;28;20025;-82
2022/09/04 02:50:25;;;;;;;0.17;0.17;;;;;;;;;;5056957;28;20123;-83
2022/09/04 02:52:51;;;;;;;0.20;0.20;;;;;;;;;;5039158;28;20147;-83
2022/09/04 02:55:17;;;;;;;0.20;0.20;;;;;;;;;;5056695;28;20020;-83
2022/09/04 02:58:02;;;;;;;0.68;0.68;;;;;;;;;;5056214;28;20101;-82
2022/09/04 03:00:41;;;;;;;0.20;0.20;;;;;;;;;;5038975;28;20033;-82
2022/09/04 03:03:11;;;;;;;0.20;0.20;;;;;;;;;;5017749;28;20476;-82
2022/09/04 03:05:41;;;;;;;0.20;0.20;;;;;;;;;;5052541;28;20025;-82
2022/09/04 03:08:12;;;;;;;0.20;0.20;;;;;;;;;;5052691;28;20404;-82
2022/09/04 03:10:43;;;;;;;0.10;0.10;;;;;;;;;;5053465;28;20109;-83
2022/09/04 03:13:08;;;;;;;0.30;0.30;;;;;;;;;;5054461;28;20036;-82
2022/09/04 03:15:34;;;;;;;0.10;0.10;;;;;;;;;;5052796;28;20035;-82
2022/09/04 03:18:03;;;;;;;0.20;0.20;;;;;;;;;;5052178;28;20380;-82
2022/09/04 03:20:32;;;;;;;0.10;0.10;;;;;;;;;;5051902;28;20033;-82
2022/09/04 03:22:58;;;;;;;0.27;0.27;;;;;;;;;;5052099;28;20029;-85
2022/09/04 03:25:30;;;;;;;0.20;0.20;;;;;;;;;;5051893;28;20033;-87
2022/09/04 03:27:56;;;;;;;0.20;0.20;;;;;;;;;;5050954;28;20112;-86
2022/09/04 03:30:22;;;;;;;0.20;0.20;;;;;;;;;;5051809;28;20116;-86
2022/09/04 03:33:06;;;;;;;0.20;0.20;;;;;;;;;;5051461;28;20021;-85
2022/09/04 03:35:31;;;;;;;0.20;0.20;;;;;;;;;;5031836;28;20465;-78
2022/09/04 03:38:09;;;;;;;0.20;0.20;;;;;;;;;;5031450;28;20091;-84
2022/09/04 03:40:53;;;;;;;0.30;0.30;;;;;;;;;;5011883;28;20076;-88
2022/09/04 03:43:39;;;;;;;0.20;0.20;;;;;;;;;;5029891;28;20065;-86
2022/09/04 03:46:12;;;;;;;0.30;0.30;;;;;;;;;;5011622;28;20948;-86
2022/09/04 03:49:10;;;;;;;0.20;0.20;;;;;;;;;;5011846;28;20033;-78
2022/09/04 03:51:54;;;;;;;0.20;0.20;;;;;;;;;;4986082;28;20056;-79
2022/09/04 03:54:27;;;;;;;0.13;0.13;;;;;;;;;;5012078;28;20380;-82
2022/09/04 03:56:59;;;;;;;0.20;0.20;;;;;;;;;;5030368;28;20036;-81
2022/09/04 03:59:37;;;;;;;0.30;0.30;;;;;;;;;;5037742;28;20028;-79
2022/09/04 04:02:22;;;;;;;0.20;0.20;;;;;;;;;;5046465;28;20488;-80
2022/09/04 04:05:00;;;;;;;0.20;0.20;;;;;;;;;;5050946;28;20294;-82
2022/09/04 04:07:34;;;;;;;0.30;0.30;;;;;;;;;;5051494;28;20476;-82
2022/09/04 04:09:59;;;;;;;0.20;0.20;;;;;;;;;;5051019;28;20040;-82
2022/09/04 04:12:28;;;;;;;0.20;0.20;;;;;;;;;;5050858;28;20032;-80
2022/09/04 04:15:17;;;;;;;0.20;0.20;;;;;;;;;;5051249;28;20080;-80
2022/09/04 04:18:03;;;;;;;0.20;0.20;;;;;;;;;;5039944;28;20067;-80
2022/09/04 04:20:55;;;;;;;0.20;0.20;;;;;;;;;;5050573;28;20021;-83
2022/09/04 04:23:39;;;;;;;0.10;0.10;;;;;;;;;;5019833;28;20045;-80
2022/09/04 04:26:12;;;;;;;0.20;0.20;;;;;;;;;;5050321;28;20040;-80
2022/09/04 04:29:07;;;;;;;0.28;0.28;;;;;;;;;;5049575;28;20063;-80
2022/09/04 04:31:39;;;;;;;0.20;0.20;;;;;;;;;;5050294;28;20044;-81
2022/09/04 04:34:36;;;;;;;0.20;0.20;;;;;;;;;;5050584;28;20486;-80
2022/09/04 04:37:16;;;;;;;0.20;0.20;;;;;;;;;;5006486;28;20083;-81
2022/09/04 04:39:55;;;;;;;0.22;0.22;;;;;;;;;;5050468;28;20044;-77
2022/09/04 04:42:30;;;;;;;0.30;0.30;;;;;;;;;;5032690;28;20043;-78
2022/09/04 04:47:55;;;;;;;0.20;0.20;;;;;;;;;;5050225;28;20032;-77
2022/09/04 04:50:34;;;;;;;0.20;0.20;;;;;;;;;;5049669;28;20729;-77
2022/09/04 04:53:00;;;;;;;0.30;0.30;;;;;;;;;;5049862;28;20033;-77
2022/09/04 04:55:33;;;;;;;0.20;0.20;;;;;;;;;;5049574;28;20021;-77
2022/09/04 04:57:59;;;;;;;0.20;0.20;;;;;;;;;;5049895;28;20033;-77
2022/09/04 05:00:35;;;;;;;0.20;0.20;;;;;;;;;;5049544;28;20024;-79
2022/09/04 05:03:07;;;;;;;0.20;0.20;;;;;;;;;;5012684;28;20413;-80
2022/09/04 05:05:39;;;;;;;0.20;0.20;;;;;;;;;;5030598;28;20353;-82
2022/09/04 05:08:23;;;;;;;0.30;0.30;;;;;;;;;;5031331;28;20069;-81
2022/09/04 05:11:09;;;;;;;0.20;0.20;;;;;;;;;;5031794;28;20048;-81
2022/09/04 05:13:41;;;;;;;0.20;0.20;;;;;;;;;;5031874;28;20072;-81
2022/09/04 05:16:29;;;;;;;0.20;0.20;;;;;;;;;;5038136;28;20021;-81
2022/09/04 05:18:58;;;;;;;0.20;0.20;;;;;;;;;;5027039;28;20061;-79
2022/09/04 05:21:24;;;;;;;;;;;;;;;;;;5053391;28;20009;-81
2022/09/04 05:23:55;;;;;;;0.15;0.15;;;;;;;;;;5045261;28;20428;-80
2022/09/04 05:26:26;;;;;;;0.20;0.20;;;;;;;;;;5032577;28;20104;-80
2022/09/04 05:29:10;;;;;;;0.20;0.20;;;;;;;;;;5030238;28;20022;-80
2022/09/04 05:31:45;;;;;;;0.20;0.20;;;;;;;;;;5030421;28;20107;-82
2022/09/04 05:34:32;;;;;;;0.20;0.20;;;;;;;;;;5029935;28;20030;-82
2022/09/04 05:37:07;;;;;;;0.20;0.20;;;;;;;;;;5048161;28;20087;-83
2022/09/04 05:39:45;;;;;;;0.20;0.20;;;;;;;;;;5012232;28;20029;-80
2022/09/04 05:42:29;;;;;;;0.20;0.20;;;;;;;;;;5036510;28;20488;-79
2022/09/04 05:45:01;;;;;;;0.30;0.30;;;;;;;;;;5049170;28;20029;-80
2022/09/04 05:47:45;;;;;;;0.20;0.20;;;;;;;;;;5048850;28;20032;-82
2022/09/04 05:50:29;;;;;;;0.20;0.20;;;;;;;;;;5031383;28;20045;-80
2022/09/04 05:52:58;;;;;;;0.20;0.20;;;;;;;;;;5032117;28;20078;-82
2022/09/04 05:55:42;;;;;;;0.20;0.20;;;;;;;;;;5049491;28;20037;-80
2022/09/04 05:58:11;;;;;;;0.40;0.40;;;;;;;;;;5032130;28;20545;-81
2022/09/04 06:01:00;;;;;;;0.50;0.50;;;;;;;;;;5030853;28;20481;-80
2022/09/04 06:03:28;;;;;;;0.20;0.20;;;;;;;;;;5046255;28;20071;-81
2022/09/04 06:06:12;;;;;;;0.20;0.20;;;;;;;;;;5031818;28;20025;-81
2022/09/04 06:08:38;;;;;;;0.20;0.20;;;;;;;;;;5049204;28;20448;-80
2022/09/04 06:11:22;;;;;;;0.20;0.20;;;;;;;;;;5049563;28;20087;-85
2022/09/04 06:14:14;;;;;;;0.20;0.20;;;;;;;;;;5048767;28;20036;-85
2022/09/04 06:16:47;;;;;;;0.20;0.20;;;;;;;;;;5049656;28;20060;-82
2022/09/04 06:19:27;;;;;;;0.28;0.28;;;;;;;;;;5032105;28;20037;-86
2022/09/04 06:22:07;;;;;;;0.20;0.20;;;;;;;;;;5049275;28;20025;-88
2022/09/04 06:24:35;;;;;;;0.20;0.20;;;;;;;;;;5033323;28;20377;-85
2022/09/04 06:27:19;;;;;;;0.20;0.20;;;;;;;;;;5048630;28;20025;-86
2022/09/04 06:29:45;;;;;;;0.28;0.28;;;;;;;;;;5049131;28;20029;-87
2022/09/04 06:32:29;;;;;;;0.20;0.20;;;;;;;;;;5031926;28;20079;-86
2022/09/04 06:35:05;;;;;;;1.23;0.73;;;;;;;;;;5049897;28;20025;-85
2022/09/04 06:37:30;;;;;;;1.35;1.25;;;;;;;;;;5049137;28;20064;-86
2022/09/04 06:40:14;;;;;;;0.30;0.30;;;;;;;;;;5048773;28;20094;-87
2022/09/04 06:42:43;;;;;;;0.30;0.30;;;;;;;;;;5048472;28;20029;-81
2022/09/04 06:45:31;;;;;;;1.60;1.50;;;;;;;;;;5048542;28;20025;-80
2022/09/04 06:48:12;;;;;;;6.78;6.32;;;;;;;;;;5021149;28;20045;-82
2022/09/04 06:50:50;;;;;;;0.50;0.50;;;;;;;;;;5016252;28;20136;-80
2022/09/04 06:53:17;;;;;;;0.30;0.30;;;;;;;;;;5048108;28;20032;-80
2022/09/04 06:55:44;;;;;;;0.30;0.30;;;;;;;;;;5029501;28;20032;-79
2022/09/04 06:58:20;;;;;;;0.20;0.20;;;;;;;;;;5048697;28;20039;-90
2022/09/04 07:00:52;;;;;;;0.65;0.65;;;;;;;;;;5034150;28;20032;-88
2022/09/04 07:03:32;;;;;;;0.20;0.20;;;;;;;;;;5052495;28;20226;-85
2022/09/04 07:06:10;;;;;;;0.43;0.43;;;;;;;;;;5052073;28;20435;-81
2022/09/04 07:08:56;;;;;;;1.20;1.20;;;;;;;;;;5034893;28;20094;-83
2022/09/04 07:11:22;;;;;;;0.30;0.30;;;;;;;;;;5052526;28;20492;-83
2022/09/04 07:14:15;;;;;;;0.20;0.20;;;;;;;;;;5051972;28;20045;-82
2022/09/04 07:17:00;;;;;;;1.35;0.30;;;;;;;;;;5052332;28;20534;-83
2022/09/04 07:19:49;;;;;;;0.20;0.20;;;;;;;;;;5034072;28;20025;-87
2022/09/04 07:22:16;;;;;;;0.20;0.20;;;;;;;;;;5014210;28;20025;-84
2022/09/04 07:24:45;;;;;;;0.20;0.20;;;;;;;;;;5014311;28;20033;-90
2022/09/04 07:27:24;;;;;;;0.20;0.20;;;;;;;;;;5032588;28;20465;-87
2022/09/04 07:29:49;;;;;;;;;;;;;;;;;;5032789;28;20032;-88
2022/09/04 07:32:28;;;;;;;0.35;0.35;;;;;;;;;;5032619;28;19913;-87
2022/09/04 07:34:59;;;;;;;0.98;0.85;;;;;;;;;;5002991;28;20037;-88
2022/09/04 07:37:26;;;;;;;0.20;0.20;;;;;;;;;;5037390;28;20030;-89
2022/09/04 07:39:59;;;;;;;0.20;0.20;;;;;;;;;;5017114;28;20513;-85
2022/09/04 07:42:29;;;;;;;0.20;0.20;;;;;;;;;;5031823;28;20032;-87
2022/09/04 07:45:06;;;;;;;1.35;0.63;;;;;;;;;;5015350;28;20056;-86
2022/09/04 07:47:43;;;;;;;0.68;0.68;;;;;;;;;;4998528;28;20037;-83
2022/09/04 07:50:12;;;;;;;0.30;0.30;;;;;;;;;;5031947;28;20406;-78
2022/09/04 07:52:56;;;;;;;0.40;0.40;;;;;;;;;;5030716;28;20639;-84
2022/09/04 07:55:30;;;;;;;0.20;0.20;;;;;;;;;;5044543;28;20489;-82
2022/09/04 07:58:02;;;;;;;0.30;0.30;;;;;;;;;;5050208;28;20021;-81
2022/09/04 08:00:31;;;;;;;0.20;0.20;;;;;;;;;;5049765;28;20036;-80
2022/09/04 08:03:00;;;;;;;0.30;0.30;;;;;;;;;;5049655;28;20029;-81
2022/09/04 08:05:30;;;;;;;0.20;0.20;;;;;;;;;;5049609;28;20025;-89
2022/09/04 08:08:03;;;;;;;0.20;0.20;;;;;;;;;;5033412;28;20033;-84
2022/09/04 08:10:36;;;;;;;0.60;0.60;;;;;;;;;;5051666;28;20048;-83
2022/09/04 08:13:08;;;;;;;0.20;0.20;;;;;;;;;;5051407;28;20071;-85
2022/09/04 08:15:37;;;;;;;0.20;0.20;;;;;;;;;;5051332;28;20029;-80
2022/09/04 08:18:06;;;;;;;0.32;0.32;;;;;;;;;;5033078;28;20777;-81
2022/09/04 08:20:46;;;;;;;0.13;0.13;;;;;;;;;;5050965;28;20562;-79
2022/09/04 08:23:17;;;;;;;0.20;0.20;;;;;;;;;;5033022;28;20029;-83
2022/09/04 08:26:05;;;;;;;19.40;1.33;;;;;;;;;;5051527;28;20565;-81
2022/09/04 08:28:34;;;;;;;7.90;1.75;;;;;;;;;;5032947;28;20487;-84
2022/09/04 08:31:06;;;;;;;0.73;0.67;;;;;;;;;;5051184;28;20090;-86
2022/09/04 08:37:01;;;;;;;;;;;;;;;;;;5051485;28;20060;-87
2022/09/04 08:39:35;;;;;;;8.83;3.07;;;;;;;;;;5050153;28;20423;-81
2022/09/04 08:42:19;;;;;;;2.03;1.20;;;;;;;;;;5049327;28;20319;-84
2022/09/04 08:45:03;;;;;;;0.63;0.63;;;;;;;;;;5012800;28;20033;-83
2022/09/04 08:47:30;;;;;;;0.20;0.20;;;;;;;;;;5032227;28;20040;-83
2022/09/04 08:49:56;;;;;;;1.25;1.25;;;;;;;;;;5050439;28;20025;-82
2022/09/04 08:52:40;;;;;;;0.10;0.10;;;;;;;;;;5047666;28;20048;-82
2022/09/04 08:55:12;;;;;;;0.20;0.20;;;;;;;;;;5016929;28;20022;-82
2022/09/04 08:58:01;;;;;;;0.20;0.20;;;;;;;;;;5013548;28;20040;-82
2022/09/04 09:00:33;;;;;;;0.30;0.30;;;;;;;;;;5007748;28;20037;-80
2022/09/04 09:03:11;;;;;;;0.20;0.20;;;;;;;;;;5030735;28;20025;-81
2022/09/04 09:05:55;;;;;;;0.20;0.20;;;;;;;;;;5029053;28;20507;-80
2022/09/04 09:08:24;;;;;;;0.20;0.20;;;;;;;;;;5027419;28;20100;-79
2022/09/04 09:10:50;;;;;;;0.20;0.20;;;;;;;;;;5012162;28;20041;-79
2022/09/04 09:13:27;;;;;;;0.30;0.30;;;;;;;;;;5029866;28;20479;-80
2022/09/04 09:15:53;;;;;;;0.28;0.28;;;;;;;;;;5015160;28;20452;-80
2022/09/04 09:18:45;;;;;;;4.20;3.92;;;;;;;;;;5049462;28;20116;-79
2022/09/04 09:21:16;;;;;;;0.20;0.20;;;;;;;;;;5049798;28;20029;-80
2022/09/04 09:24:03;;;;;;;0.25;0.25;;;;;;;;;;5050203;28;20563;-80
2022/09/04 09:26:32;;;;;;;0.50;0.45;;;;;;;;;;5049498;28;20354;-81
2022/09/04 09:29:03;;;;;;;0.20;0.20;;;;;;;;;;5050107;28;20037;-80
2022/09/04 09:31:36;;;;;;;12.35;9.48;;;;;;;;;;5049707;28;20456;-80
2022/09/04 09:34:22;;;;;;;0.28;0.28;;;;;;;;;;5032114;28;20037;-82
2022/09/04 09:36:57;;;;;;;0.20;0.20;;;;;;;;;;5032681;28;20041;-83
2022/09/04 09:39:29;;;;;;;0.10;0.10;;;;;;;;;;5049662;28;20060;-85
2022/09/04 09:41:58;;;;;;;0.20;0.20;;;;;;;;;;5049346;28;20126;-84
2022/09/04 09:44:42;;;;;;;0.20;0.20;;;;;;;;;;5049694;28;20110;-84
2022/09/04 09:47:14;;;;;;;0.20;0.20;;;;;;;;;;5049237;28;20037;-81
2022/09/04 09:49:39;;;;;;;0.10;0.10;;;;;;;;;;5066597;28;20032;-85
2022/09/04 09:52:08;;;;;;;0.20;0.20;;;;;;;;;;5046559;28;20045;-86
2022/09/04 09:54:39;;;;;;;0.22;0.22;;;;;;;;;;5028052;28;20087;-85
2022/09/04 09:57:20;;;;;;;0.20;0.20;;;;;;;;;;5034169;28;20033;-82
2022/09/04 10:00:05;;;;;;;0.20;0.20;;;;;;;;;;5049618;28;20036;-83
2022/09/04 10:02:34;;;;;;;0.13;0.13;;;;;;;;;;5050248;28;20056;-85
2022/09/04 10:05:00;;;;;;;0.20;0.20;;;;;;;;;;5016330;28;20025;-83
2022/09/04 10:07:44;;;;;;;0.20;0.20;;;;;;;;;;5049930;28;20040;-86
2022/09/04 10:10:23;;;;;;;0.20;0.20;;;;;;;;;;5031638;28;20108;-85
2022/09/04 10:12:57;;;;;;;0.30;0.30;;;;;;;;;;5031613;28;20120;-86
2022/09/04 10:15:26;;;;;;;0.30;0.30;;;;;;;;;;5049780;28;20183;-85
2022/09/04 10:18:25;;;;;;;1.35;1.20;;;;;;;;;;5050044;28;20029;-88
2022/09/04 10:20:59;;;;;;;0.30;0.30;;;;;;;;;;4989834;28;20044;-88
2022/09/04 10:23:31;;;;;;;0.60;0.60;;;;;;;;;;5049929;28;20036;-86
2022/09/04 10:26:00;;;;;;;0.20;0.20;;;;;;;;;;5031955;28;20029;-85
2022/09/04 10:28:25;;;;;;;0.20;0.20;;;;;;;;;;5049335;28;20036;-84
2022/09/04 10:31:09;;;;;;;0.20;0.20;;;;;;;;;;5048865;28;20381;-77
2022/09/04 10:33:46;;;;;;;0.20;0.20;;;;;;;;;;5049069;28;20025;-82
2022/09/04 10:36:12;;;;;;;0.10;0.10;;;;;;;;;;5032614;28;20021;-79
2022/09/04 10:40:34;;;;;;;0.20;0.20;;;;;;;;;;5052678;28;20036;-76
2022/09/04 10:41:46;;;;;;;0.20;0.20;;;;;;;;;;5034715;28;20044;-81
2022/09/04 10:44:14;;;;;;;0.20;0.20;;;;;;;;;;5052756;28;20032;-78
2022/09/04 10:46:57;;;;;;;0.20;0.20;;;;;;;;;;5052108;28;20111;-81
2022/09/04 10:49:26;;;;;;;0.20;0.20;;;;;;;;;;5052651;28;20021;-78
2022/09/04 10:52:11;;;;;;;0.30;0.30;;;;;;;;;;5052696;28;20510;-78
2022/09/04 10:54:43;;;;;;;1.30;1.27;;;;;;;;;;5052435;28;20128;-79
2022/09/04 10:57:29;;;;;;;1.45;1.35;;;;;;;;;;5052979;28;20029;-78
2022/09/04 11:00:05;;;;;;;0.22;0.22;;;;;;;;;;5052919;28;20033;-78
2022/09/04 11:02:48;;;;;;;0.60;0.60;;;;;;;;;;5053085;28;20033;-82
2022/09/04 11:05:20;;;;;;;0.30;0.30;;;;;;;;;;5034773;28;20029;-80
2022/09/04 11:07:47;;;;;;;0.80;0.77;;;;;;;;;;5052992;28;20037;-79
2022/09/04 11:10:24;;;;;;;0.30;0.30;;;;;;;;;;5052258;28;20029;-79
2022/09/04 11:12:50;;;;;;;0.30;0.30;;;;;;;;;;5052819;28;20048;-79
2022/09/04 11:15:30;;;;;;;0.28;0.28;;;;;;;;;;5052555;28;20477;-76
2022/09/04 11:17:56;;;;;;;0.40;0.40;;;;;;;;;;5052405;28;20035;-79
2022/09/04 11:20:24;;;;;;;0.40;0.40;;;;;;;;;;5039870;28;20025;-79
2022/09/04 11:23:08;;;;;;;0.50;0.50;;;;;;;;;;5042934;28;20033;-79
2022/09/04 11:25:53;;;;;;;0.30;0.30;;;;;;;;;;5051668;28;20052;-81
2022/09/04 11:28:39;;;;;;;0.50;0.50;;;;;;;;;;5046500;28;20519;-78
2022/09/04 11:31:23;;;;;;;0.50;0.50;;;;;;;;;;5006489;28;20048;-78
2022/09/04 11:34:01;;;;;;;3.03;1.15;;;;;;;;;;5049999;28;20387;-79
2022/09/04 11:36:34;;;;;;;1.85;1.50;;;;;;;;;;5050720;28;20036;-80
2022/09/04 11:39:02;;;;;;;0.30;0.30;;;;;;;;;;5053015;28;20032;-81
2022/09/04 11:41:42;;;;;;;0.30;0.30;;;;;;;;;;5038317;28;20045;-78
2022/09/04 11:44:30;;;;;;;0.40;0.40;;;;;;;;;;5027317;28;20104;-82
2022/09/04 11:47:00;;;;;;;0.40;0.40;;;;;;;;;;5048870;28;20028;-81
2022/09/04 11:49:33;;;;;;;0.40;0.40;;;;;;;;;;5050679;28;20136;-81
2022/09/04 11:52:11;;;;;;;0.88;0.88;;;;;;;;;;5046998;28;20045;-81
2022/09/04 11:54:55;;;;;;;0.32;0.32;;;;;;;;;;5049161;28;20027;-80
2022/09/04 11:57:23;;;;;;;0.90;0.90;;;;;;;;;;5046336;28;20090;-79
2022/09/04 11:59:55;;;;;;;0.30;0.30;;;;;;;;;;5050871;28;20114;-80
2022/09/04 12:02:36;;;;;;;0.40;0.40;;;;;;;;;;5031086;28;20021;-82
2022/09/04 12:07:24;;;;;;;1.27;1.17;;;;;;;;;;5046116;27;1469240;-81
2022/09/04 12:09:50;;;;;;;;;;;;;;;;;;5085400;28;20029;-82
2022/09/04 12:12:34;;;;;;;0.40;0.40;;;;;;;;;;5084463;28;20354;-82
2022/09/04 12:15:38;;;;;;;0.50;0.50;;;;;;;;;;5079610;28;20032;-83
2022/09/04 12:18:22;;;;;;;0.50;0.50;;;;;;;;;;5025074;28;20091;-82
2022/09/04 12:20:47;;;;;;;0.40;0.40;;;;;;;;;;5012053;28;20044;-83
2022/09/04 12:23:28;;;;;;;0.40;0.40;;;;;;;;;;5051669;28;20024;-82
2022/09/04 12:26:15;;;;;;;0.50;0.50;;;;;;;;;;5060247;28;20036;-83
2022/09/04 12:28:46;;;;;;;0.40;0.40;;;;;;;;;;5083406;28;20683;-83
2022/09/04 12:31:31;;;;;;;0.50;0.50;;;;;;;;;;5082432;28;20554;-83
2022/09/04 12:33:56;;;;;;;0.47;0.47;;;;;;;;;;5054543;28;20408;-85
2022/09/04 12:36:37;;;;;;;0.50;0.50;;;;;;;;;;5084605;28;20115;-81
2022/09/04 12:39:14;;;;;;;0.50;0.50;;;;;;;;;;5084940;28;20328;-80
2022/09/04 12:41:48;;;;;;;0.50;0.50;;;;;;;;;;5082628;28;20032;-81
2022/09/04 12:44:16;;;;;;;0.68;0.68;;;;;;;;;;5061255;28;20032;-84
2022/09/04 12:46:47;;;;;;;0.60;0.60;;;;;;;;;;5067310;28;20109;-85
2022/09/04 12:49:31;;;;;;;0.45;0.45;;;;;;;;;;5065458;28;20024;-79
2022/09/04 12:52:16;;;;;;;0.45;0.45;;;;;;;;;;5072168;28;20078;-79
2022/09/04 12:54:42;;;;;;;0.55;0.55;;;;;;;;;;5076741;28;20119;-79
2022/09/04 12:57:11;;;;;;;0.55;0.55;;;;;;;;;;5067053;28;20111;-80
2022/09/04 12:59:51;;;;;;;0.50;0.50;;;;;;;;;;5083307;28;20028;-80
2022/09/04 13:02:32;;;;;;;0.68;0.68;;;;;;;;;;5063284;28;20024;-79
2022/09/04 13:05:07;;;;;;;0.50;0.50;;;;;;;;;;5065993;28;20064;-80
2022/09/04 13:07:41;;;;;;;0.60;0.60;;;;;;;;;;5020010;28;20167;-79
2022/09/04 13:10:42;;;;;;;8.85;5.18;;;;;;;;;;5037125;28;20030;-80
2022/09/04 13:13:22;;;;;;;0.55;0.55;;;;;;;;;;4996068;28;20030;-78
2022/09/04 13:16:10;;;;;;;0.60;0.60;;;;;;;;;;5035778;28;20037;-78
2022/09/04 13:19:02;;;;;;;0.50;0.50;;;;;;;;;;5028681;28;20518;-78
2022/09/04 13:21:36;;;;;;;0.50;0.50;;;;;;;;;;5025905;28;20484;-76
2022/09/04 13:24:07;;;;;;;0.43;0.43;;;;;;;;;;5027798;28;20025;-76
2022/09/04 13:26:36;;;;;;;0.70;0.70;;;;;;;;;;5043707;28;20041;-77
2022/09/04 13:29:28;;;;;;;0.70;0.70;;;;;;;;;;5023853;28;20061;-76
2022/09/04 13:32:11;;;;;;;0.85;0.85;;;;;;;;;;4997022;28;20057;-77
2022/09/04 13:34:58;;;;;;;0.43;0.43;;;;;;;;;;5021120;28;20037;-76
2022/09/04 13:37:33;;;;;;;0.30;0.30;;;;;;;;;;5023912;28;20041;-76
2022/09/04 13:40:19;;;;;;;0.40;0.40;;;;;;;;;;5015228;28;20038;-79
2022/09/04 13:43:06;;;;;;;0.50;0.50;;;;;;;;;;5003317;28;20065;-78
2022/09/04 13:45:37;;;;;;;0.73;0.60;;;;;;;;;;5023342;28;20057;-78
2022/09/04 13:48:03;;;;;;;0.50;0.50;;;;;;;;;;5013460;28;20033;-77
2022/09/04 13:50:34;;;;;;;0.40;0.40;;;;;;;;;;5009021;28;20366;-78
2022/09/04 13:53:03;;;;;;;0.38;0.38;;;;;;;;;;5019342;28;20029;-78
2022/09/04 13:55:32;;;;;;;0.40;0.40;;;;;;;;;;5001788;28;20029;-77
2022/09/04 13:57:58;;;;;;;0.50;0.50;;;;;;;;;;5028765;28;20383;-76
2022/09/04 14:00:28;;;;;;;0.40;0.40;;;;;;;;;;5023023;28;20899;-72
2022/09/04 14:02:57;;;;;;;0.40;0.40;;;;;;;;;;5010663;28;20030;-72
2022/09/04 14:05:24;;;;;;;0.82;0.73;;;;;;;;;;4992210;28;20042;-73
2022/09/04 14:07:57;;;;;;;0.60;0.60;;;;;;;;;;5027907;28;20053;-71
2022/09/04 14:10:37;;;;;;;1.15;0.60;;;;;;;;;;4995207;28;20110;-73
2022/09/04 14:13:14;;;;;;;0.85;0.85;;;;;;;;;;5037123;28;20614;-72
2022/09/04 14:15:43;;;;;;;0.40;0.40;;;;;;;;;;5029089;28;20039;-71
2022/09/04 14:18:12;;;;;;;;;;;;;;;;;;4995761;28;20057;-71
2022/09/04 14:20:45;;;;;;;0.70;0.70;;;;;;;;;;5029274;28;20551;-71
2022/09/04 14:23:26;;;;;;;0.90;0.90;;;;;;;;;;5011135;28;20369;-71
2022/09/04 14:26:11;;;;;;;0.52;0.52;;;;;;;;;;5011203;28;20052;-71
2022/09/04 14:28:36;;;;;;;0.63;0.63;;;;;;;;;;5040461;28;20043;-71
2022/09/04 14:31:06;;;;;;;0.45;0.45;;;;;;;;;;5048280;28;20074;-72
2022/09/04 14:33:35;;;;;;;;;;;;;;;;;;5028479;28;20120;-73
2022/09/04 14:36:08;;;;;;;0.32;0.32;;;;;;;;;;5048603;28;19912;-72
2022/09/04 14:38:35;;;;;;;0.50;0.50;;;;;;;;;;5048672;28;20021;-71
2022/09/04 14:41:00;;;;;;;3.72;1.13;;;;;;;;;;5046552;28;20033;-73
2022/09/04 14:43:30;;;;;;;0.40;0.40;;;;;;;;;;5047708;28;20021;-71
2022/09/04 14:46:28;;;;;;;10.80;0.60;;;;;;;;;;5041282;28;20396;-72
2022/09/04 14:49:02;;;;;;;0.50;0.50;;;;;;;;;;4995457;28;20076;-72
2022/09/04 14:51:33;;;;;;;0.40;0.40;;;;;;;;;;5010802;28;20025;-71
2022/09/04 14:53:58;;;;;;;1.08;1.08;;;;;;;;;;5028460;28;20472;-72
2022/09/04 14:56:38;;;;;;;1.63;1.42;;;;;;;;;;5012032;28;20534;-72
2022/09/04 14:59:09;;;;;;;3.22;0.88;;;;;;;;;;5032312;28;20034;-71
2022/09/04 15:01:38;;;;;;;0.47;0.47;;;;;;;;;;5027855;28;20068;-72
2022/09/04 15:04:07;;;;;;;1.65;0.70;;;;;;;;;;5028259;28;20084;-73
2022/09/04 15:06:54;;;;;;;13.95;0.90;;;;;;;;;;5028171;28;20057;-72
2022/09/04 15:09:20;;;;;;;1.17;0.80;;;;;;;;;;5009859;28;20079;-71
2022/09/04 15:11:47;;;;;;;0.85;0.55;;;;;;;;;;5028051;28;20068;-72
2022/09/04 15:14:27;;;;;;;4.70;1.10;;;;;;;;;;5011025;28;20072;-71
2022/09/04 15:16:55;;;;;;;0.60;0.60;;;;;;;;;;5029156;28;20102;-72
2022/09/04 15:19:45;;;;;;;1.65;0.60;;;;;;;;;;5011118;28;20057;-72
2022/09/04 15:22:43;;;;;;;2.42;1.10;;;;;;;;;;5035340;28;20573;-74
2022/09/04 15:25:28;;;;;;;0.40;0.40;;;;;;;;;;4988411;28;20051;-73
2022/09/04 15:28:01;;;;;;;1.05;0.60;;;;;;;;;;5029689;28;20033;-72
2022/09/04 15:30:32;;;;;;;1.70;1.10;;;;;;;;;;5029825;28;20043;-75
2022/09/04 15:33:03;;;;;;;1.65;1.00;;;;;;;;;;5047527;28;20063;-71
2022/09/04 15:35:30;;;;;;;0.43;0.43;;;;;;;;;;5046319;28;20057;-73
2022/09/04 15:38:03;;;;;;;0.50;0.50;;;;;;;;;;5046590;28;20025;-71
2022/09/04 15:40:32;;;;;;;0.30;0.30;;;;;;;;;;5044848;28;20029;-72
2022/09/04 15:43:06;;;;;;;0.30;0.30;;;;;;;;;;5043516;28;20025;-72
2022/09/04 15:45:45;;;;;;;0.30;0.30;;;;;;;;;;5045732;28;20450;-72